sensor_id;sensor_type;location;lat;lon;timestamp;temperature;humidity
13944;DHT22;7044;53.286;8.534;2023-04-24T00:01:49;12.10;99.90
13944;DHT22;7044;53.286;8.534;2023-04-24T00:04:17;12.10;99.90
13944;DHT22;7044;53.286;8.534;2023-04-24T00:06:45;12.10;99.90
13944;DHT22;7044;53.286;8.534;2023-04-24T00:09:14;12.10;99.90
13944;DHT22;7044;53.286;8.534;2023-04-24T00:11:42;12.10;99.90
13944;DHT22;7044;53.286;8.534;2023-04-24T00:14:09;12.10;99.90
13944;DHT22;7044;53.286;8.534;2023-04-24T00:16:35;12.10;99.90
13944;DHT22;7044;53.286;8.534;2023-04-24T00:19:02;12.10;99.90
13944;DHT22;7044;53.286;8.534;2023-04-24T00:21:31;12.10;99.90
13944;DHT22;7044;53.286;8.534;2023-04-24T00:23:59;12.10;99.90
13944;DHT22;7044;53.286;8.534;2023-04-24T00:26:26;12.10;99.90
13944;DHT22;7044;53.286;8.534;2023-04-24T00:28:52;12.10;99.90
13944;DHT22;7044;53.286;8.534;2023-04-24T00:31:19;12.10;99.90
13944;DHT22;7044;53.286;8.534;2023-04-24T00:33:46;12.10;99.90
13944;DHT22;7044;53.286;8.534;2023-04-24T00:36:13;12.10;99.90
13944;DHT22;7044;53.286;8.534;2023-04-24T00:38:40;12.10;99.90
13944;DHT22;7044;53.286;8.534;2023-04-24T00:41:08;12.10;99.90
13944;DHT22;7044;53.286;8.534;2023-04-24T00:43:35;12.00;99.90
13944;DHT22;7044;53.286;8.534;2023-04-24T00:46:01;12.00;99.90
13944;DHT22;7044;53.286;8.534;2023-04-24T00:48:28;12.00;99.90
13944;DHT22;7044;53.286;8.534;2023-04-24T00:50:55;12.00;99.90
13944;DHT22;7044;53.286;8.534;2023-04-24T00:53:22;12.00;99.90
13944;DHT22;7044;53.286;8.534;2023-04-24T00:55:49;12.10;99.90
13944;DHT22;7044;53.286;8.534;2023-04-24T00:58:18;12.10;99.10
13944;DHT22;7044;53.286;8.534;2023-04-24T01:00:45;12.10;96.60
13944;DHT22;7044;53.286;8.534;2023-04-24T01:03:13;12.00;94.90
13944;DHT22;7044;53.286;8.534;2023-04-24T01:05:40;12.10;95.80
13944;DHT22;7044;53.286;8.534;2023-04-24T01:08:07;12.10;92.10
13944;DHT22;7044;53.286;8.534;2023-04-24T01:10:34;12.00;84.90
13944;DHT22;7044;53.286;8.534;2023-04-24T01:13:03;11.90;77.60
13944;DHT22;7044;53.286;8.534;2023-04-24T01:15:31;11.90;75.80
13944;DHT22;7044;53.286;8.534;2023-04-24T01:17:58;11.80;71.10
13944;DHT22;7044;53.286;8.534;2023-04-24T01:20:25;11.80;67.10
13944;DHT22;7044;53.286;8.534;2023-04-24T01:22:54;11.80;65.90
13944;DHT22;7044;53.286;8.534;2023-04-24T01:25:22;11.80;61.60
13944;DHT22;7044;53.286;8.534;2023-04-24T01:27:49;11.80;58.00
13944;DHT22;7044;53.286;8.534;2023-04-24T01:30:16;11.80;57.30
13944;DHT22;7044;53.286;8.534;2023-04-24T01:32:44;11.80;54.90
13944;DHT22;7044;53.286;8.534;2023-04-24T01:35:11;11.70;53.60
13944;DHT22;7044;53.286;8.534;2023-04-24T01:37:38;11.80;55.60
13944;DHT22;7044;53.286;8.534;2023-04-24T01:40:07;11.70;52.40
13944;DHT22;7044;53.286;8.534;2023-04-24T01:42:35;11.70;54.20
13944;DHT22;7044;53.286;8.534;2023-04-24T01:45:04;11.70;52.80
13944;DHT22;7044;53.286;8.534;2023-04-24T01:47:31;11.80;49.60
13944;DHT22;7044;53.286;8.534;2023-04-24T01:49:58;11.80;47.00
13944;DHT22;7044;53.286;8.534;2023-04-24T01:52:25;11.70;46.90
13944;DHT22;7044;53.286;8.534;2023-04-24T01:54:54;11.70;50.90
13944;DHT22;7044;53.286;8.534;2023-04-24T01:57:23;11.60;53.80
13944;DHT22;7044;53.286;8.534;2023-04-24T01:59:50;11.60;57.70
13944;DHT22;7044;53.286;8.534;2023-04-24T02:02:17;11.60;56.50
13944;DHT22;7044;53.286;8.534;2023-04-24T02:04:46;11.60;58.10
13944;DHT22;7044;53.286;8.534;2023-04-24T02:07:13;11.70;57.40
13944;DHT22;7044;53.286;8.534;2023-04-24T02:09:40;11.70;57.30
13944;DHT22;7044;53.286;8.534;2023-04-24T02:12:06;11.70;56.00
13944;DHT22;7044;53.286;8.534;2023-04-24T02:14:35;11.70;60.10
13944;DHT22;7044;53.286;8.534;2023-04-24T02:17:01;11.70;54.70
13944;DHT22;7044;53.286;8.534;2023-04-24T02:19:29;11.60;55.20
13944;DHT22;7044;53.286;8.534;2023-04-24T02:21:55;11.70;59.20
13944;DHT22;7044;53.286;8.534;2023-04-24T02:24:25;11.60;60.00
13944;DHT22;7044;53.286;8.534;2023-04-24T02:26:51;11.60;63.80
13944;DHT22;7044;53.286;8.534;2023-04-24T02:29:18;11.60;59.30
13944;DHT22;7044;53.286;8.534;2023-04-24T02:31:46;11.60;61.80
13944;DHT22;7044;53.286;8.534;2023-04-24T02:34:13;11.60;58.40
13944;DHT22;7044;53.286;8.534;2023-04-24T02:36:40;11.60;59.50
13944;DHT22;7044;53.286;8.534;2023-04-24T02:39:07;11.60;56.20
13944;DHT22;7044;53.286;8.534;2023-04-24T02:41:33;11.60;55.60
13944;DHT22;7044;53.286;8.534;2023-04-24T02:44:00;11.60;50.00
13944;DHT22;7044;53.286;8.534;2023-04-24T02:46:27;11.70;44.10
13944;DHT22;7044;53.286;8.534;2023-04-24T02:48:55;11.70;41.10
13944;DHT22;7044;53.286;8.534;2023-04-24T02:51:22;11.70;39.20
13944;DHT22;7044;53.286;8.534;2023-04-24T02:53:49;11.70;38.60
13944;DHT22;7044;53.286;8.534;2023-04-24T02:56:15;11.70;37.20
13944;DHT22;7044;53.286;8.534;2023-04-24T02:58:42;11.60;36.70
13944;DHT22;7044;53.286;8.534;2023-04-24T03:01:09;11.60;38.10
13944;DHT22;7044;53.286;8.534;2023-04-24T03:03:36;11.60;37.40
13944;DHT22;7044;53.286;8.534;2023-04-24T03:06:04;11.70;32.70
13944;DHT22;7044;53.286;8.534;2023-04-24T03:08:31;11.60;33.10
13944;DHT22;7044;53.286;8.534;2023-04-24T03:10:58;11.60;30.80
13944;DHT22;7044;53.286;8.534;2023-04-24T03:13:25;11.60;38.10
13944;DHT22;7044;53.286;8.534;2023-04-24T03:15:52;11.60;37.70
13944;DHT22;7044;53.286;8.534;2023-04-24T03:18:19;11.60;39.20
13944;DHT22;7044;53.286;8.534;2023-04-24T03:20:46;11.60;41.30
13944;DHT22;7044;53.286;8.534;2023-04-24T03:23:15;11.60;40.10
13944;DHT22;7044;53.286;8.534;2023-04-24T03:25:41;11.50;39.30
13944;DHT22;7044;53.286;8.534;2023-04-24T03:28:09;11.60;41.70
13944;DHT22;7044;53.286;8.534;2023-04-24T03:30:35;11.50;47.60
13944;DHT22;7044;53.286;8.534;2023-04-24T03:33:02;11.50;48.60
13944;DHT22;7044;53.286;8.534;2023-04-24T03:35:29;11.50;52.00
13944;DHT22;7044;53.286;8.534;2023-04-24T03:37:56;11.40;52.60
13944;DHT22;7044;53.286;8.534;2023-04-24T03:40:24;11.40;51.50
13944;DHT22;7044;53.286;8.534;2023-04-24T03:42:51;11.40;51.70
13944;DHT22;7044;53.286;8.534;2023-04-24T03:45:18;11.40;52.90
13944;DHT22;7044;53.286;8.534;2023-04-24T03:47:45;11.40;54.90
13944;DHT22;7044;53.286;8.534;2023-04-24T03:50:11;11.40;57.60
13944;DHT22;7044;53.286;8.534;2023-04-24T03:52:38;11.40;59.50
13944;DHT22;7044;53.286;8.534;2023-04-24T03:55:06;11.30;58.90
13944;DHT22;7044;53.286;8.534;2023-04-24T03:57:34;11.40;59.70
13944;DHT22;7044;53.286;8.534;2023-04-24T04:00:01;11.40;58.20
13944;DHT22;7044;53.286;8.534;2023-04-24T04:02:29;11.40;58.00
13944;DHT22;7044;53.286;8.534;2023-04-24T04:04:56;11.40;56.00
13944;DHT22;7044;53.286;8.534;2023-04-24T04:07:23;11.40;53.90
13944;DHT22;7044;53.286;8.534;2023-04-24T04:09:50;11.40;56.00
13944;DHT22;7044;53.286;8.534;2023-04-24T04:12:17;11.40;54.70
13944;DHT22;7044;53.286;8.534;2023-04-24T04:14:45;11.30;55.10
13944;DHT22;7044;53.286;8.534;2023-04-24T04:17:12;11.40;57.70
13944;DHT22;7044;53.286;8.534;2023-04-24T04:19:39;11.30;58.20
13944;DHT22;7044;53.286;8.534;2023-04-24T04:22:06;11.30;61.10
13944;DHT22;7044;53.286;8.534;2023-04-24T04:24:33;11.40;57.80
13944;DHT22;7044;53.286;8.534;2023-04-24T04:27:03;11.30;55.00
13944;DHT22;7044;53.286;8.534;2023-04-24T04:29:30;11.40;58.50
13944;DHT22;7044;53.286;8.534;2023-04-24T04:31:59;11.40;60.00
13944;DHT22;7044;53.286;8.534;2023-04-24T04:34:26;11.40;60.30
13944;DHT22;7044;53.286;8.534;2023-04-24T04:36:54;11.40;56.50
13944;DHT22;7044;53.286;8.534;2023-04-24T04:39:21;11.40;51.40
13944;DHT22;7044;53.286;8.534;2023-04-24T04:41:47;11.40;50.40
13944;DHT22;7044;53.286;8.534;2023-04-24T04:44:15;11.50;47.40
13944;DHT22;7044;53.286;8.534;2023-04-24T04:46:42;11.50;42.30
13944;DHT22;7044;53.286;8.534;2023-04-24T04:49:10;11.40;41.60
13944;DHT22;7044;53.286;8.534;2023-04-24T04:51:38;11.40;39.00
13944;DHT22;7044;53.286;8.534;2023-04-24T04:54:05;11.40;41.00
13944;DHT22;7044;53.286;8.534;2023-04-24T04:56:32;11.40;43.90
13944;DHT22;7044;53.286;8.534;2023-04-24T04:58:58;11.40;44.20
13944;DHT22;7044;53.286;8.534;2023-04-24T05:01:25;11.30;46.60
13944;DHT22;7044;53.286;8.534;2023-04-24T05:03:53;11.30;46.40
13944;DHT22;7044;53.286;8.534;2023-04-24T05:06:21;11.40;46.80
13944;DHT22;7044;53.286;8.534;2023-04-24T05:08:47;11.40;47.00
13944;DHT22;7044;53.286;8.534;2023-04-24T05:11:15;11.40;47.40
13944;DHT22;7044;53.286;8.534;2023-04-24T05:13:41;11.30;48.70
13944;DHT22;7044;53.286;8.534;2023-04-24T05:16:08;11.40;47.50
13944;DHT22;7044;53.286;8.534;2023-04-24T05:18:35;11.40;46.60
13944;DHT22;7044;53.286;8.534;2023-04-24T05:21:02;11.30;49.20
13944;DHT22;7044;53.286;8.534;2023-04-24T05:23:30;11.30;51.10
13944;DHT22;7044;53.286;8.534;2023-04-24T05:25:57;11.40;51.70
13944;DHT22;7044;53.286;8.534;2023-04-24T05:28:24;11.30;51.10
13944;DHT22;7044;53.286;8.534;2023-04-24T05:30:53;11.30;48.40
13944;DHT22;7044;53.286;8.534;2023-04-24T05:33:20;11.30;49.10
13944;DHT22;7044;53.286;8.534;2023-04-24T05:35:47;11.40;51.50
13944;DHT22;7044;53.286;8.534;2023-04-24T05:38:14;11.40;53.70
13944;DHT22;7044;53.286;8.534;2023-04-24T05:40:44;11.30;51.50
13944;DHT22;7044;53.286;8.534;2023-04-24T05:43:11;11.30;50.80
13944;DHT22;7044;53.286;8.534;2023-04-24T05:45:38;11.40;50.40
13944;DHT22;7044;53.286;8.534;2023-04-24T05:48:05;11.40;47.90
13944;DHT22;7044;53.286;8.534;2023-04-24T05:50:32;11.40;43.80
13944;DHT22;7044;53.286;8.534;2023-04-24T05:52:58;11.40;46.60
13944;DHT22;7044;53.286;8.534;2023-04-24T05:55:27;11.40;45.50
13944;DHT22;7044;53.286;8.534;2023-04-24T05:57:55;11.40;46.00
13944;DHT22;7044;53.286;8.534;2023-04-24T06:00:23;11.50;43.70
13944;DHT22;7044;53.286;8.534;2023-04-24T06:02:50;11.50;44.10
13944;DHT22;7044;53.286;8.534;2023-04-24T06:05:17;11.40;37.70
13944;DHT22;7044;53.286;8.534;2023-04-24T06:07:44;11.50;37.80
13944;DHT22;7044;53.286;8.534;2023-04-24T06:10:11;11.40;36.50
13944;DHT22;7044;53.286;8.534;2023-04-24T06:12:38;11.50;36.10
13944;DHT22;7044;53.286;8.534;2023-04-24T06:15:07;11.50;34.60
13944;DHT22;7044;53.286;8.534;2023-04-24T06:17:34;11.60;32.30
13944;DHT22;7044;53.286;8.534;2023-04-24T06:20:01;11.60;35.40
13944;DHT22;7044;53.286;8.534;2023-04-24T06:22:30;11.70;35.80
13944;DHT22;7044;53.286;8.534;2023-04-24T06:24:56;11.70;30.90
13944;DHT22;7044;53.286;8.534;2023-04-24T06:27:23;11.70;28.00
13944;DHT22;7044;53.286;8.534;2023-04-24T06:29:50;11.70;22.30
13944;DHT22;7044;53.286;8.534;2023-04-24T06:32:21;11.70;23.30
13944;DHT22;7044;53.286;8.534;2023-04-24T06:34:48;11.70;27.80
13944;DHT22;7044;53.286;8.534;2023-04-24T06:37:15;11.80;28.30
13944;DHT22;7044;53.286;8.534;2023-04-24T06:39:42;11.80;26.90
13944;DHT22;7044;53.286;8.534;2023-04-24T06:42:09;11.80;24.90
13944;DHT22;7044;53.286;8.534;2023-04-24T06:44:36;11.80;20.60
13944;DHT22;7044;53.286;8.534;2023-04-24T06:47:06;11.80;24.40
13944;DHT22;7044;53.286;8.534;2023-04-24T06:49:35;11.80;20.70
13944;DHT22;7044;53.286;8.534;2023-04-24T06:52:01;11.70;21.00
13944;DHT22;7044;53.286;8.534;2023-04-24T06:54:28;11.70;25.30
13944;DHT22;7044;53.286;8.534;2023-04-24T06:56:55;11.60;25.80
13944;DHT22;7044;53.286;8.534;2023-04-24T06:59:22;11.70;25.50
13944;DHT22;7044;53.286;8.534;2023-04-24T07:01:49;11.70;25.20
13944;DHT22;7044;53.286;8.534;2023-04-24T07:04:16;11.70;23.20
13944;DHT22;7044;53.286;8.534;2023-04-24T07:06:45;11.70;28.90
13944;DHT22;7044;53.286;8.534;2023-04-24T07:09:12;11.70;31.30
13944;DHT22;7044;53.286;8.534;2023-04-24T07:11:41;11.80;30.30
13944;DHT22;7044;53.286;8.534;2023-04-24T07:14:08;11.80;29.30
13944;DHT22;7044;53.286;8.534;2023-04-24T07:16:35;11.80;24.80
13944;DHT22;7044;53.286;8.534;2023-04-24T07:19:02;11.80;25.10
13944;DHT22;7044;53.286;8.534;2023-04-24T07:21:29;11.80;25.90
13944;DHT22;7044;53.286;8.534;2023-04-24T07:23:58;11.80;26.50
13944;DHT22;7044;53.286;8.534;2023-04-24T07:26:25;11.80;27.60
13944;DHT22;7044;53.286;8.534;2023-04-24T07:28:52;11.90;29.00
13944;DHT22;7044;53.286;8.534;2023-04-24T07:31:19;11.80;24.60
13944;DHT22;7044;53.286;8.534;2023-04-24T07:33:46;11.80;22.30
13944;DHT22;7044;53.286;8.534;2023-04-24T07:36:13;11.80;19.10
13944;DHT22;7044;53.286;8.534;2023-04-24T07:38:44;11.80;20.50
13944;DHT22;7044;53.286;8.534;2023-04-24T07:41:12;11.80;21.60
13944;DHT22;7044;53.286;8.534;2023-04-24T07:43:39;11.80;19.20
13944;DHT22;7044;53.286;8.534;2023-04-24T07:46:06;11.90;19.00
13944;DHT22;7044;53.286;8.534;2023-04-24T07:48:33;11.80;21.70
13944;DHT22;7044;53.286;8.534;2023-04-24T07:51:00;11.90;17.10
13944;DHT22;7044;53.286;8.534;2023-04-24T07:53:27;11.90;21.20
13944;DHT22;7044;53.286;8.534;2023-04-24T07:55:54;11.90;23.10
13944;DHT22;7044;53.286;8.534;2023-04-24T07:58:23;11.80;18.10
13944;DHT22;7044;53.286;8.534;2023-04-24T08:00:49;11.80;18.40
13944;DHT22;7044;53.286;8.534;2023-04-24T08:03:16;11.80;15.00
13944;DHT22;7044;53.286;8.534;2023-04-24T08:05:45;11.80;12.10
13944;DHT22;7044;53.286;8.534;2023-04-24T08:08:12;11.90;17.50
13944;DHT22;7044;53.286;8.534;2023-04-24T08:10:39;11.90;8.80
13944;DHT22;7044;53.286;8.534;2023-04-24T08:13:06;11.90;10.30
13944;DHT22;7044;53.286;8.534;2023-04-24T08:15:34;11.90;9.90
13944;DHT22;7044;53.286;8.534;2023-04-24T08:18:01;12.00;11.00
13944;DHT22;7044;53.286;8.534;2023-04-24T08:20:28;12.10;8.10
13944;DHT22;7044;53.286;8.534;2023-04-24T08:22:55;12.00;1.00
13944;DHT22;7044;53.286;8.534;2023-04-24T08:25:22;12.10;2.30
13944;DHT22;7044;53.286;8.534;2023-04-24T08:27:50;12.10;1.00
13944;DHT22;7044;53.286;8.534;2023-04-24T08:30:17;12.10;1.00
13944;DHT22;7044;53.286;8.534;2023-04-24T08:32:45;12.10;1.00
13944;DHT22;7044;53.286;8.534;2023-04-24T08:35:12;12.00;1.00
13944;DHT22;7044;53.286;8.534;2023-04-24T08:37:39;12.00;1.00
13944;DHT22;7044;53.286;8.534;2023-04-24T08:40:10;11.90;1.00
13944;DHT22;7044;53.286;8.534;2023-04-24T08:42:38;11.90;1.00
13944;DHT22;7044;53.286;8.534;2023-04-24T08:45:06;11.80;1.00
13944;DHT22;7044;53.286;8.534;2023-04-24T08:47:35;11.80;1.00
13944;DHT22;7044;53.286;8.534;2023-04-24T08:50:04;11.80;1.00
13944;DHT22;7044;53.286;8.534;2023-04-24T08:52:32;11.90;1.00
13944;DHT22;7044;53.286;8.534;2023-04-24T08:55:00;11.80;1.00
13944;DHT22;7044;53.286;8.534;2023-04-24T08:57:27;11.80;1.00
13944;DHT22;7044;53.286;8.534;2023-04-24T08:59:55;11.80;1.00
13944;DHT22;7044;53.286;8.534;2023-04-24T09:02:23;11.80;1.00
13944;DHT22;7044;53.286;8.534;2023-04-24T09:04:50;11.80;1.00
13944;DHT22;7044;53.286;8.534;2023-04-24T09:07:19;11.80;13.40
13944;DHT22;7044;53.286;8.534;2023-04-24T09:09:48;11.80;1.00
13944;DHT22;7044;53.286;8.534;2023-04-24T09:12:17;11.80;1.00
13944;DHT22;7044;53.286;8.534;2023-04-24T09:14:44;11.80;1.00
13944;DHT22;7044;53.286;8.534;2023-04-24T09:17:11;11.80;1.00
13944;DHT22;7044;53.286;8.534;2023-04-24T09:19:38;11.80;1.00
13944;DHT22;7044;53.286;8.534;2023-04-24T09:22:05;11.80;1.00
13944;DHT22;7044;53.286;8.534;2023-04-24T09:24:34;11.70;1.00
13944;DHT22;7044;53.286;8.534;2023-04-24T09:27:01;11.70;1.00
13944;DHT22;7044;53.286;8.534;2023-04-24T09:29:28;11.70;1.00
13944;DHT22;7044;53.286;8.534;2023-04-24T09:31:55;11.70;5.90
13944;DHT22;7044;53.286;8.534;2023-04-24T09:34:23;11.70;10.10
13944;DHT22;7044;53.286;8.534;2023-04-24T09:36:50;11.70;6.40
13944;DHT22;7044;53.286;8.534;2023-04-24T09:39:18;11.80;8.40
13944;DHT22;7044;53.286;8.534;2023-04-24T09:41:49;11.80;1.00
13944;DHT22;7044;53.286;8.534;2023-04-24T09:44:18;11.80;1.00
13944;DHT22;7044;53.286;8.534;2023-04-24T09:46:50;11.80;1.00
13944;DHT22;7044;53.286;8.534;2023-04-24T09:49:22;11.80;1.00
13944;DHT22;7044;53.286;8.534;2023-04-24T09:51:49;11.80;1.10
13944;DHT22;7044;53.286;8.534;2023-04-24T09:54:17;11.80;1.00
13944;DHT22;7044;53.286;8.534;2023-04-24T09:56:48;11.80;1.00
13944;DHT22;7044;53.286;8.534;2023-04-24T09:59:16;11.70;11.30
13944;DHT22;7044;53.286;8.534;2023-04-24T10:01:43;11.80;17.60
13944;DHT22;7044;53.286;8.534;2023-04-24T10:04:18;11.80;17.80
13944;DHT22;7044;53.286;8.534;2023-04-24T10:06:46;11.80;14.60
13944;DHT22;7044;53.286;8.534;2023-04-24T10:09:14;11.80;5.30
13944;DHT22;7044;53.286;8.534;2023-04-24T10:11:42;11.80;1.00
13944;DHT22;7044;53.286;8.534;2023-04-24T10:14:13;11.80;1.00
13944;DHT22;7044;53.286;8.534;2023-04-24T10:16:43;11.90;1.80
13944;DHT22;7044;53.286;8.534;2023-04-24T10:19:12;11.90;1.00
13944;DHT22;7044;53.286;8.534;2023-04-24T10:21:41;12.00;1.00
13944;DHT22;7044;53.286;8.534;2023-04-24T10:24:12;12.10;1.00
13944;DHT22;7044;53.286;8.534;2023-04-24T10:26:40;12.10;1.00
13944;DHT22;7044;53.286;8.534;2023-04-24T10:29:08;12.10;6.40
13944;DHT22;7044;53.286;8.534;2023-04-24T10:31:39;12.20;1.00
13944;DHT22;7044;53.286;8.534;2023-04-24T10:34:07;12.20;1.00
13944;DHT22;7044;53.286;8.534;2023-04-24T10:36:36;12.20;1.00
13944;DHT22;7044;53.286;8.534;2023-04-24T10:39:07;12.20;5.10
13944;DHT22;7044;53.286;8.534;2023-04-24T10:41:37;12.20;8.70
13944;DHT22;7044;53.286;8.534;2023-04-24T10:44:05;12.10;12.00
13944;DHT22;7044;53.286;8.534;2023-04-24T10:46:32;12.10;16.40
13944;DHT22;7044;53.286;8.534;2023-04-24T10:49:04;12.00;23.80
13944;DHT22;7044;53.286;8.534;2023-04-24T10:51:46;11.90;33.00
13944;DHT22;7044;53.286;8.534;2023-04-24T10:54:23;11.80;43.90
13944;DHT22;7044;53.286;8.534;2023-04-24T10:56:51;11.80;54.20
13944;DHT22;7044;53.286;8.534;2023-04-24T10:59:24;11.70;59.10
13944;DHT22;7044;53.286;8.534;2023-04-24T11:01:53;11.60;70.40
13944;DHT22;7044;53.286;8.534;2023-04-24T11:04:31;11.60;78.00
13944;DHT22;7044;53.286;8.534;2023-04-24T11:06:58;11.60;82.60
13944;DHT22;7044;53.286;8.534;2023-04-24T11:09:27;11.60;84.90
13944;DHT22;7044;53.286;8.534;2023-04-24T11:12:03;11.60;88.70
13944;DHT22;7044;53.286;8.534;2023-04-24T11:14:59;11.50;90.50
13944;DHT22;7044;53.286;8.534;2023-04-24T11:17:29;11.50;91.10
13944;DHT22;7044;53.286;8.534;2023-04-24T11:20:02;11.50;90.70
13944;DHT22;7044;53.286;8.534;2023-04-24T11:22:33;11.50;92.00
13944;DHT22;7044;53.286;8.534;2023-04-24T11:25:00;11.40;94.70
13944;DHT22;7044;53.286;8.534;2023-04-24T11:27:30;11.30;95.10
13944;DHT22;7044;53.286;8.534;2023-04-24T11:30:02;11.30;96.30
13944;DHT22;7044;53.286;8.534;2023-04-24T11:32:35;11.30;96.80
13944;DHT22;7044;53.286;8.534;2023-04-24T11:35:06;11.20;98.50
13944;DHT22;7044;53.286;8.534;2023-04-24T11:37:35;11.20;99.10
13944;DHT22;7044;53.286;8.534;2023-04-24T11:40:04;11.20;99.90
13944;DHT22;7044;53.286;8.534;2023-04-24T11:42:34;11.20;99.90
13944;DHT22;7044;53.286;8.534;2023-04-24T11:45:01;11.10;99.90
13944;DHT22;7044;53.286;8.534;2023-04-24T11:47:29;11.10;99.90
13944;DHT22;7044;53.286;8.534;2023-04-24T11:49:58;11.10;99.90
13944;DHT22;7044;53.286;8.534;2023-04-24T11:52:27;11.20;99.90
13944;DHT22;7044;53.286;8.534;2023-04-24T11:54:54;11.20;99.90
13944;DHT22;7044;53.286;8.534;2023-04-24T11:57:22;11.20;99.90
13944;DHT22;7044;53.286;8.534;2023-04-24T11:59:49;11.20;99.90
13944;DHT22;7044;53.286;8.534;2023-04-24T12:02:23;11.20;99.90
13944;DHT22;7044;53.286;8.534;2023-04-24T12:04:50;11.20;99.90
13944;DHT22;7044;53.286;8.534;2023-04-24T12:07:16;11.20;99.90
13944;DHT22;7044;53.286;8.534;2023-04-24T12:09:46;11.10;99.90
13944;DHT22;7044;53.286;8.534;2023-04-24T12:12:14;11.10;99.90
13944;DHT22;7044;53.286;8.534;2023-04-24T12:14:47;11.10;99.90
13944;DHT22;7044;53.286;8.534;2023-04-24T12:17:14;11.00;99.90
13944;DHT22;7044;53.286;8.534;2023-04-24T12:19:45;11.00;99.90
13944;DHT22;7044;53.286;8.534;2023-04-24T12:22:13;11.00;99.90
13944;DHT22;7044;53.286;8.534;2023-04-24T12:24:56;10.90;99.90
13944;DHT22;7044;53.286;8.534;2023-04-24T12:27:23;11.00;99.90
13944;DHT22;7044;53.286;8.534;2023-04-24T12:29:53;11.00;99.90
13944;DHT22;7044;53.286;8.534;2023-04-24T12:32:21;10.90;99.90
13944;DHT22;7044;53.286;8.534;2023-04-24T12:34:49;10.80;99.90
13944;DHT22;7044;53.286;8.534;2023-04-24T12:37:17;10.70;99.90
13944;DHT22;7044;53.286;8.534;2023-04-24T12:39:59;10.40;99.90
13944;DHT22;7044;53.286;8.534;2023-04-24T12:42:26;10.30;99.90
13944;DHT22;7044;53.286;8.534;2023-04-24T12:44:56;10.20;99.90
13944;DHT22;7044;53.286;8.534;2023-04-24T12:47:24;10.10;99.90
13944;DHT22;7044;53.286;8.534;2023-04-24T12:49:51;10.10;99.90
13944;DHT22;7044;53.286;8.534;2023-04-24T12:52:18;10.00;99.90
13944;DHT22;7044;53.286;8.534;2023-04-24T12:54:45;10.00;99.90
13944;DHT22;7044;53.286;8.534;2023-04-24T12:57:13;9.90;99.90
13944;DHT22;7044;53.286;8.534;2023-04-24T12:59:40;9.80;99.90
13944;DHT22;7044;53.286;8.534;2023-04-24T13:02:07;9.80;99.90
13944;DHT22;7044;53.286;8.534;2023-04-24T13:04:34;9.80;99.90
13944;DHT22;7044;53.286;8.534;2023-04-24T13:07:01;9.80;99.90
13944;DHT22;7044;53.286;8.534;2023-04-24T13:09:28;9.60;99.90
13944;DHT22;7044;53.286;8.534;2023-04-24T13:11:55;9.40;99.90
13944;DHT22;7044;53.286;8.534;2023-04-24T13:14:23;9.40;99.90
13944;DHT22;7044;53.286;8.534;2023-04-24T13:16:50;9.40;99.90
13944;DHT22;7044;53.286;8.534;2023-04-24T13:19:17;9.30;99.90
13944;DHT22;7044;53.286;8.534;2023-04-24T13:21:44;9.30;99.90
13944;DHT22;7044;53.286;8.534;2023-04-24T13:24:11;9.30;99.90
13944;DHT22;7044;53.286;8.534;2023-04-24T13:26:38;9.20;99.90
13944;DHT22;7044;53.286;8.534;2023-04-24T13:29:05;9.10;99.90
13944;DHT22;7044;53.286;8.534;2023-04-24T13:31:33;9.10;99.90
13944;DHT22;7044;53.286;8.534;2023-04-24T13:34:00;9.00;99.90
13944;DHT22;7044;53.286;8.534;2023-04-24T13:36:26;9.00;99.90
13944;DHT22;7044;53.286;8.534;2023-04-24T13:38:53;9.10;99.90
13944;DHT22;7044;53.286;8.534;2023-04-24T13:41:20;9.10;99.90
13944;DHT22;7044;53.286;8.534;2023-04-24T13:43:47;9.00;99.90
13944;DHT22;7044;53.286;8.534;2023-04-24T13:46:14;9.10;99.90
13944;DHT22;7044;53.286;8.534;2023-04-24T13:48:42;9.10;99.90
13944;DHT22;7044;53.286;8.534;2023-04-24T13:51:09;9.10;99.90
13944;DHT22;7044;53.286;8.534;2023-04-24T13:53:36;9.00;99.90
13944;DHT22;7044;53.286;8.534;2023-04-24T13:56:04;9.10;99.90
13944;DHT22;7044;53.286;8.534;2023-04-24T13:58:31;9.10;99.90
13944;DHT22;7044;53.286;8.534;2023-04-24T14:00:58;9.20;99.90
13944;DHT22;7044;53.286;8.534;2023-04-24T14:03:25;9.30;99.90
13944;DHT22;7044;53.286;8.534;2023-04-24T14:05:53;9.30;99.90
13944;DHT22;7044;53.286;8.534;2023-04-24T14:08:19;9.40;99.90
13944;DHT22;7044;53.286;8.534;2023-04-24T14:10:46;9.30;99.90
13944;DHT22;7044;53.286;8.534;2023-04-24T14:13:13;9.20;99.90
13944;DHT22;7044;53.286;8.534;2023-04-24T14:15:40;9.30;99.90
13944;DHT22;7044;53.286;8.534;2023-04-24T14:18:07;9.30;99.90
13944;DHT22;7044;53.286;8.534;2023-04-24T14:20:34;9.40;99.90
13944;DHT22;7044;53.286;8.534;2023-04-24T14:23:02;9.30;99.90
13944;DHT22;7044;53.286;8.534;2023-04-24T14:25:30;9.20;99.90
13944;DHT22;7044;53.286;8.534;2023-04-24T14:27:56;9.30;99.90
13944;DHT22;7044;53.286;8.534;2023-04-24T14:30:23;9.30;99.90
13944;DHT22;7044;53.286;8.534;2023-04-24T14:32:50;9.30;99.90
13944;DHT22;7044;53.286;8.534;2023-04-24T14:35:17;9.20;99.90
13944;DHT22;7044;53.286;8.534;2023-04-24T14:37:44;9.30;99.90
13944;DHT22;7044;53.286;8.534;2023-04-24T14:40:12;9.20;99.90
13944;DHT22;7044;53.286;8.534;2023-04-24T14:42:39;9.20;99.90
13944;DHT22;7044;53.286;8.534;2023-04-24T14:45:07;9.30;99.90
13944;DHT22;7044;53.286;8.534;2023-04-24T14:47:34;9.30;99.90
13944;DHT22;7044;53.286;8.534;2023-04-24T14:50:01;9.30;99.90
13944;DHT22;7044;53.286;8.534;2023-04-24T14:52:28;9.40;99.90
13944;DHT22;7044;53.286;8.534;2023-04-24T14:54:55;9.40;99.90
13944;DHT22;7044;53.286;8.534;2023-04-24T14:57:23;9.40;99.90
13944;DHT22;7044;53.286;8.534;2023-04-24T14:59:50;9.40;99.90
13944;DHT22;7044;53.286;8.534;2023-04-24T15:02:16;9.50;99.90
13944;DHT22;7044;53.286;8.534;2023-04-24T15:04:43;9.50;99.90
13944;DHT22;7044;53.286;8.534;2023-04-24T15:07:10;9.50;99.90
13944;DHT22;7044;53.286;8.534;2023-04-24T15:09:37;9.60;99.90
13944;DHT22;7044;53.286;8.534;2023-04-24T15:12:04;9.60;99.90
13944;DHT22;7044;53.286;8.534;2023-04-24T15:14:32;9.60;99.90
13944;DHT22;7044;53.286;8.534;2023-04-24T15:16:59;9.60;99.90
13944;DHT22;7044;53.286;8.534;2023-04-24T15:19:25;9.60;99.90
13944;DHT22;7044;53.286;8.534;2023-04-24T15:21:52;9.60;99.90
13944;DHT22;7044;53.286;8.534;2023-04-24T15:24:19;9.60;99.90
13944;DHT22;7044;53.286;8.534;2023-04-24T15:26:46;9.60;99.90
13944;DHT22;7044;53.286;8.534;2023-04-24T15:29:12;9.50;99.90
13944;DHT22;7044;53.286;8.534;2023-04-24T15:31:41;9.50;99.90
13944;DHT22;7044;53.286;8.534;2023-04-24T15:34:07;9.50;99.90
13944;DHT22;7044;53.286;8.534;2023-04-24T15:36:35;9.50;99.90
13944;DHT22;7044;53.286;8.534;2023-04-24T15:39:02;9.50;99.90
13944;DHT22;7044;53.286;8.534;2023-04-24T15:41:29;9.50;99.90
13944;DHT22;7044;53.286;8.534;2023-04-24T15:43:57;9.40;99.90
13944;DHT22;7044;53.286;8.534;2023-04-24T15:46:23;9.40;99.90
13944;DHT22;7044;53.286;8.534;2023-04-24T15:48:51;9.40;99.90
13944;DHT22;7044;53.286;8.534;2023-04-24T15:51:19;9.40;99.90
13944;DHT22;7044;53.286;8.534;2023-04-24T15:53:46;9.40;99.90
13944;DHT22;7044;53.286;8.534;2023-04-24T15:56:12;9.40;99.90